sensor_id;sensor_type;location;lat;lon;timestamp;temperature;humidity
77467;DHT22;66564;42.482;25.548;2024-03-29T00:02:03;13.81;65.34
77467;DHT22;66564;42.482;25.548;2024-03-29T00:04:30;13.81;65.23
77467;DHT22;66564;42.482;25.548;2024-03-29T00:06:56;13.83;65.23
77467;DHT22;66564;42.482;25.548;2024-03-29T00:09:21;13.85;64.97
77467;DHT22;66564;42.482;25.548;2024-03-29T00:11:49;13.82;65.59
77467;DHT22;66564;42.482;25.548;2024-03-29T00:14:15;13.78;66.30
77467;DHT22;66564;42.482;25.548;2024-03-29T00:16:40;13.72;66.21
77467;DHT22;66564;42.482;25.548;2024-03-29T00:19:06;13.69;66.18
77467;DHT22;66564;42.482;25.548;2024-03-29T00:21:31;13.71;66.33
77467;DHT22;66564;42.482;25.548;2024-03-29T00:23:57;13.69;66.05
77467;DHT22;66564;42.482;25.548;2024-03-29T00:26:22;13.68;66.10
77467;DHT22;66564;42.482;25.548;2024-03-29T00:28:48;13.66;66.33
77467;DHT22;66564;42.482;25.548;2024-03-29T00:31:13;13.65;67.58
77467;DHT22;66564;42.482;25.548;2024-03-29T00:33:39;13.63;67.82
77467;DHT22;66564;42.482;25.548;2024-03-29T00:36:04;13.65;67.92
77467;DHT22;66564;42.482;25.548;2024-03-29T00:38:30;13.68;67.81
77467;DHT22;66564;42.482;25.548;2024-03-29T00:40:55;13.72;67.43
77467;DHT22;66564;42.482;25.548;2024-03-29T00:43:21;13.72;67.06
77467;DHT22;66564;42.482;25.548;2024-03-29T00:45:46;13.73;66.89
77467;DHT22;66564;42.482;25.548;2024-03-29T00:48:12;13.69;66.88
77467;DHT22;66564;42.482;25.548;2024-03-29T00:50:40;13.72;66.60
77467;DHT22;66564;42.482;25.548;2024-03-29T00:53:06;13.66;66.66
77467;DHT22;66564;42.482;25.548;2024-03-29T00:55:34;13.66;66.51
77467;DHT22;66564;42.482;25.548;2024-03-29T00:58:00;13.61;66.42
77467;DHT22;66564;42.482;25.548;2024-03-29T01:00:25;13.57;66.41
77467;DHT22;66564;42.482;25.548;2024-03-29T01:02:51;13.54;66.16
77467;DHT22;66564;42.482;25.548;2024-03-29T01:05:17;13.51;65.80
77467;DHT22;66564;42.482;25.548;2024-03-29T01:07:42;13.51;65.68
77467;DHT22;66564;42.482;25.548;2024-03-29T01:10:08;13.44;65.69
77467;DHT22;66564;42.482;25.548;2024-03-29T01:12:37;13.42;65.92
77467;DHT22;66564;42.482;25.548;2024-03-29T01:15:04;13.35;66.31
77467;DHT22;66564;42.482;25.548;2024-03-29T01:17:30;13.35;66.33
77467;DHT22;66564;42.482;25.548;2024-03-29T01:19:56;13.38;66.15
77467;DHT22;66564;42.482;25.548;2024-03-29T01:22:21;13.39;65.32
77467;DHT22;66564;42.482;25.548;2024-03-29T01:24:47;13.34;64.35
77467;DHT22;66564;42.482;25.548;2024-03-29T01:27:12;13.32;64.14
77467;DHT22;66564;42.482;25.548;2024-03-29T01:29:38;13.25;64.64
77467;DHT22;66564;42.482;25.548;2024-03-29T01:32:04;13.25;64.24
77467;DHT22;66564;42.482;25.548;2024-03-29T01:34:30;13.24;63.74
77467;DHT22;66564;42.482;25.548;2024-03-29T01:36:55;13.28;63.93
77467;DHT22;66564;42.482;25.548;2024-03-29T01:39:21;13.22;64.49
77467;DHT22;66564;42.482;25.548;2024-03-29T01:41:52;13.22;64.90
77467;DHT22;66564;42.482;25.548;2024-03-29T01:44:17;13.22;64.71
77467;DHT22;66564;42.482;25.548;2024-03-29T01:46:43;13.24;64.04
77467;DHT22;66564;42.482;25.548;2024-03-29T01:49:10;13.24;63.72
77467;DHT22;66564;42.482;25.548;2024-03-29T01:51:37;13.19;63.68
77467;DHT22;66564;42.482;25.548;2024-03-29T01:54:05;13.22;63.41
77467;DHT22;66564;42.482;25.548;2024-03-29T01:56:31;13.17;62.83
77467;DHT22;66564;42.482;25.548;2024-03-29T01:58:58;13.15;62.64
77467;DHT22;66564;42.482;25.548;2024-03-29T02:01:26;13.17;62.88
77467;DHT22;66564;42.482;25.548;2024-03-29T02:03:52;13.15;62.87
77467;DHT22;66564;42.482;25.548;2024-03-29T02:06:18;13.10;62.73
77467;DHT22;66564;42.482;25.548;2024-03-29T02:08:44;13.06;64.65
77467;DHT22;66564;42.482;25.548;2024-03-29T02:11:09;13.08;65.68
77467;DHT22;66564;42.482;25.548;2024-03-29T02:13:37;13.07;66.04
77467;DHT22;66564;42.482;25.548;2024-03-29T02:16:03;13.04;66.09
77467;DHT22;66564;42.482;25.548;2024-03-29T02:18:28;13.06;66.06
77467;DHT22;66564;42.482;25.548;2024-03-29T02:20:56;13.03;65.84
77467;DHT22;66564;42.482;25.548;2024-03-29T02:23:29;12.98;65.88
77467;DHT22;66564;42.482;25.548;2024-03-29T02:25:55;13.03;65.83
77467;DHT22;66564;42.482;25.548;2024-03-29T02:28:24;13.04;65.93
77467;DHT22;66564;42.482;25.548;2024-03-29T02:30:50;13.06;66.19
77467;DHT22;66564;42.482;25.548;2024-03-29T02:33:15;13.07;66.23
77467;DHT22;66564;42.482;25.548;2024-03-29T02:35:41;13.07;66.15
77467;DHT22;66564;42.482;25.548;2024-03-29T02:38:06;13.07;66.17
77467;DHT22;66564;42.482;25.548;2024-03-29T02:40:32;13.12;65.26
77467;DHT22;66564;42.482;25.548;2024-03-29T02:42:57;13.11;64.68
77467;DHT22;66564;42.482;25.548;2024-03-29T02:45:23;13.04;64.65
77467;DHT22;66564;42.482;25.548;2024-03-29T02:47:48;13.00;64.98
77467;DHT22;66564;42.482;25.548;2024-03-29T02:50:16;12.98;65.27
77467;DHT22;66564;42.482;25.548;2024-03-29T02:52:42;12.97;65.26
77467;DHT22;66564;42.482;25.548;2024-03-29T02:55:08;12.96;65.58
77467;DHT22;66564;42.482;25.548;2024-03-29T02:57:36;12.91;65.74
77467;DHT22;66564;42.482;25.548;2024-03-29T03:00:02;12.94;65.48
77467;DHT22;66564;42.482;25.548;2024-03-29T03:02:28;12.86;65.48
77467;DHT22;66564;42.482;25.548;2024-03-29T03:04:54;12.91;65.51
77467;DHT22;66564;42.482;25.548;2024-03-29T03:07:19;12.87;65.12
77467;DHT22;66564;42.482;25.548;2024-03-29T03:10:03;12.90;64.76
77467;DHT22;66564;42.482;25.548;2024-03-29T03:12:47;12.87;64.63
77467;DHT22;66564;42.482;25.548;2024-03-29T03:15:13;12.83;64.64
77467;DHT22;66564;42.482;25.548;2024-03-29T03:17:38;12.84;64.85
77467;DHT22;66564;42.482;25.548;2024-03-29T03:20:04;12.80;64.97
77467;DHT22;66564;42.482;25.548;2024-03-29T03:22:32;12.84;65.17
77467;DHT22;66564;42.482;25.548;2024-03-29T03:24:57;12.86;65.06
77467;DHT22;66564;42.482;25.548;2024-03-29T03:27:23;12.91;64.83
77467;DHT22;66564;42.482;25.548;2024-03-29T03:29:49;12.87;63.92
77467;DHT22;66564;42.482;25.548;2024-03-29T03:32:14;12.86;62.26
77467;DHT22;66564;42.482;25.548;2024-03-29T03:34:40;12.87;61.49
77467;DHT22;66564;42.482;25.548;2024-03-29T03:37:05;12.88;60.36
77467;DHT22;66564;42.482;25.548;2024-03-29T03:39:31;12.94;58.69
77467;DHT22;66564;42.482;25.548;2024-03-29T03:41:56;13.01;61.54
77467;DHT22;66564;42.482;25.548;2024-03-29T03:44:21;13.00;62.32
77467;DHT22;66564;42.482;25.548;2024-03-29T03:46:50;13.01;62.86
77467;DHT22;66564;42.482;25.548;2024-03-29T03:49:15;13.06;63.07
77467;DHT22;66564;42.482;25.548;2024-03-29T03:51:41;13.08;63.32
77467;DHT22;66564;42.482;25.548;2024-03-29T03:54:06;13.10;63.72
77467;DHT22;66564;42.482;25.548;2024-03-29T03:56:32;13.10;63.71
77467;DHT22;66564;42.482;25.548;2024-03-29T03:58:57;13.14;63.02
77467;DHT22;66564;42.482;25.548;2024-03-29T04:01:23;13.17;62.50
77467;DHT22;66564;42.482;25.548;2024-03-29T04:03:48;13.19;62.24
77467;DHT22;66564;42.482;25.548;2024-03-29T04:06:14;13.24;61.89
77467;DHT22;66564;42.482;25.548;2024-03-29T04:08:39;13.27;61.03
77467;DHT22;66564;42.482;25.548;2024-03-29T04:11:05;13.29;60.24
77467;DHT22;66564;42.482;25.548;2024-03-29T04:13:31;13.28;60.06
77467;DHT22;66564;42.482;25.548;2024-03-29T04:16:06;13.29;60.02
77467;DHT22;66564;42.482;25.548;2024-03-29T04:18:33;13.35;59.08
77467;DHT22;66564;42.482;25.548;2024-03-29T04:20:59;13.35;58.80
77467;DHT22;66564;42.482;25.548;2024-03-29T04:23:25;13.39;59.32
77467;DHT22;66564;42.482;25.548;2024-03-29T04:25:55;13.47;59.92
77467;DHT22;66564;42.482;25.548;2024-03-29T04:28:20;13.48;62.01
77467;DHT22;66564;42.482;25.548;2024-03-29T04:33:17;13.58;63.06
77467;DHT22;66564;42.482;25.548;2024-03-29T04:36:01;13.63;63.49
77467;DHT22;66564;42.482;25.548;2024-03-29T04:38:31;13.71;63.71
77467;DHT22;66564;42.482;25.548;2024-03-29T04:40:57;13.76;63.74
77467;DHT22;66564;42.482;25.548;2024-03-29T04:43:28;13.78;63.67
77467;DHT22;66564;42.482;25.548;2024-03-29T04:46:11;13.85;63.01
77467;DHT22;66564;42.482;25.548;2024-03-29T04:48:37;13.92;62.73
77467;DHT22;66564;42.482;25.548;2024-03-29T04:51:04;13.95;62.58
77467;DHT22;66564;42.482;25.548;2024-03-29T04:53:32;14.01;62.31
77467;DHT22;66564;42.482;25.548;2024-03-29T04:56:00;14.05;62.15
77467;DHT22;66564;42.482;25.548;2024-03-29T04:58:26;14.12;62.01
77467;DHT22;66564;42.482;25.548;2024-03-29T05:00:52;14.13;62.10
77467;DHT22;66564;42.482;25.548;2024-03-29T05:03:18;14.15;62.45
77467;DHT22;66564;42.482;25.548;2024-03-29T05:05:44;14.16;62.73
77467;DHT22;66564;42.482;25.548;2024-03-29T05:08:10;14.16;63.34
77467;DHT22;66564;42.482;25.548;2024-03-29T05:10:35;14.15;63.65
77467;DHT22;66564;42.482;25.548;2024-03-29T05:13:01;14.20;63.59
77467;DHT22;66564;42.482;25.548;2024-03-29T05:15:27;14.33;62.43
77467;DHT22;66564;42.482;25.548;2024-03-29T05:17:52;14.46;62.39
77467;DHT22;66564;42.482;25.548;2024-03-29T05:20:20;14.59;62.18
77467;DHT22;66564;42.482;25.548;2024-03-29T05:22:46;14.70;61.43
77467;DHT22;66564;42.482;25.548;2024-03-29T05:25:11;14.83;61.37
77467;DHT22;66564;42.482;25.548;2024-03-29T05:27:37;14.92;61.03
77467;DHT22;66564;42.482;25.548;2024-03-29T05:30:03;15.07;61.01
77467;DHT22;66564;42.482;25.548;2024-03-29T05:32:32;15.14;60.62
77467;DHT22;66564;42.482;25.548;2024-03-29T05:34:58;15.25;60.19
77467;DHT22;66564;42.482;25.548;2024-03-29T05:37:23;15.35;59.95
77467;DHT22;66564;42.482;25.548;2024-03-29T05:39:52;15.48;59.40
77467;DHT22;66564;42.482;25.548;2024-03-29T05:42:27;15.55;58.92
77467;DHT22;66564;42.482;25.548;2024-03-29T05:44:53;15.66;58.21
77467;DHT22;66564;42.482;25.548;2024-03-29T05:47:19;15.78;57.71
77467;DHT22;66564;42.482;25.548;2024-03-29T05:49:45;15.85;57.06
77467;DHT22;66564;42.482;25.548;2024-03-29T05:52:11;16.00;54.82
77467;DHT22;66564;42.482;25.548;2024-03-29T05:54:39;16.12;53.99
77467;DHT22;66564;42.482;25.548;2024-03-29T05:57:05;16.17;53.55
77467;DHT22;66564;42.482;25.548;2024-03-29T05:59:32;16.29;53.91
77467;DHT22;66564;42.482;25.548;2024-03-29T06:01:58;16.47;53.86
77467;DHT22;66564;42.482;25.548;2024-03-29T06:04:23;16.65;53.71
77467;DHT22;66564;42.482;25.548;2024-03-29T06:06:56;16.87;53.19
77467;DHT22;66564;42.482;25.548;2024-03-29T06:09:23;17.16;52.49
77467;DHT22;66564;42.482;25.548;2024-03-29T06:11:48;17.45;51.34
77467;DHT22;66564;42.482;25.548;2024-03-29T06:14:14;17.78;50.36
77467;DHT22;66564;42.482;25.548;2024-03-29T06:17:02;18.11;49.70
77467;DHT22;66564;42.482;25.548;2024-03-29T06:19:46;18.50;48.39
77467;DHT22;66564;42.482;25.548;2024-03-29T06:22:13;18.85;47.22
77467;DHT22;66564;42.482;25.548;2024-03-29T06:24:41;19.20;46.73
77467;DHT22;66564;42.482;25.548;2024-03-29T06:27:09;19.55;42.02
77467;DHT22;66564;42.482;25.548;2024-03-29T06:29:34;19.84;42.49
77467;DHT22;66564;42.482;25.548;2024-03-29T06:32:00;20.14;40.65
77467;DHT22;66564;42.482;25.548;2024-03-29T06:34:25;20.45;38.93
77467;DHT22;66564;42.482;25.548;2024-03-29T06:36:51;20.71;37.62
77467;DHT22;66564;42.482;25.548;2024-03-29T06:39:16;20.99;37.61
77467;DHT22;66564;42.482;25.548;2024-03-29T06:41:42;21.21;36.25
77467;DHT22;66564;42.482;25.548;2024-03-29T06:44:08;21.43;37.45
77467;DHT22;66564;42.482;25.548;2024-03-29T06:46:33;21.69;35.12
77467;DHT22;66564;42.482;25.548;2024-03-29T06:48:59;21.93;36.54
77467;DHT22;66564;42.482;25.548;2024-03-29T06:51:25;22.17;36.32
77467;DHT22;66564;42.482;25.548;2024-03-29T06:53:51;22.38;33.44
77467;DHT22;66564;42.482;25.548;2024-03-29T06:56:17;22.43;32.23
77467;DHT22;66564;42.482;25.548;2024-03-29T06:58:42;22.68;32.86
77467;DHT22;66564;42.482;25.548;2024-03-29T07:01:08;22.84;33.25
77467;DHT22;66564;42.482;25.548;2024-03-29T07:03:33;22.94;31.89
77467;DHT22;66564;42.482;25.548;2024-03-29T07:05:59;23.12;32.66
77467;DHT22;66564;42.482;25.548;2024-03-29T07:08:24;23.30;32.90
77467;DHT22;66564;42.482;25.548;2024-03-29T07:11:00;23.41;31.77
77467;DHT22;66564;42.482;25.548;2024-03-29T07:13:28;23.70;32.46
77467;DHT22;66564;42.482;25.548;2024-03-29T07:15:57;23.96;32.66
77467;DHT22;66564;42.482;25.548;2024-03-29T07:18:22;23.98;31.88
77467;DHT22;66564;42.482;25.548;2024-03-29T07:20:51;24.11;29.59
77467;DHT22;66564;42.482;25.548;2024-03-29T07:23:19;24.37;32.63
77467;DHT22;66564;42.482;25.548;2024-03-29T07:25:56;24.62;32.12
77467;DHT22;66564;42.482;25.548;2024-03-29T07:28:22;24.86;32.17
77467;DHT22;66564;42.482;25.548;2024-03-29T07:30:47;25.02;28.87
77467;DHT22;66564;42.482;25.548;2024-03-29T07:33:15;25.12;28.96
77467;DHT22;66564;42.482;25.548;2024-03-29T07:35:41;25.16;29.36
77467;DHT22;66564;42.482;25.548;2024-03-29T07:38:07;25.35;31.42
77467;DHT22;66564;42.482;25.548;2024-03-29T07:40:32;25.57;30.93
77467;DHT22;66564;42.482;25.548;2024-03-29T07:42:58;25.74;29.63
77467;DHT22;66564;42.482;25.548;2024-03-29T07:45:25;25.73;28.39
77467;DHT22;66564;42.482;25.548;2024-03-29T07:47:51;25.91;29.41
77467;DHT22;66564;42.482;25.548;2024-03-29T07:50:18;26.04;29.00
77467;DHT22;66564;42.482;25.548;2024-03-29T07:52:45;26.17;27.28
77467;DHT22;66564;42.482;25.548;2024-03-29T07:55:11;26.10;26.94
77467;DHT22;66564;42.482;25.548;2024-03-29T07:57:37;26.18;28.17
77467;DHT22;66564;42.482;25.548;2024-03-29T08:00:03;26.27;27.69
77467;DHT22;66564;42.482;25.548;2024-03-29T08:02:32;26.44;29.31
77467;DHT22;66564;42.482;25.548;2024-03-29T08:04:58;26.62;28.86
77467;DHT22;66564;42.482;25.548;2024-03-29T08:07:24;26.64;26.49
77467;DHT22;66564;42.482;25.548;2024-03-29T08:09:49;26.74;27.85
77467;DHT22;66564;42.482;25.548;2024-03-29T08:12:16;26.88;28.04
77467;DHT22;66564;42.482;25.548;2024-03-29T08:14:41;26.96;28.56
77467;DHT22;66564;42.482;25.548;2024-03-29T08:17:07;27.08;27.89
77467;DHT22;66564;42.482;25.548;2024-03-29T08:19:35;27.18;28.16
77467;DHT22;66564;42.482;25.548;2024-03-29T08:22:01;27.32;28.14
77467;DHT22;66564;42.482;25.548;2024-03-29T08:24:37;26.96;26.24
77467;DHT22;66564;42.482;25.548;2024-03-29T08:27:05;26.85;27.14
77467;DHT22;66564;42.482;25.548;2024-03-29T08:29:30;27.15;29.27
77467;DHT22;66564;42.482;25.548;2024-03-29T08:31:56;27.36;28.37
77467;DHT22;66564;42.482;25.548;2024-03-29T08:34:22;27.50;26.57
77467;DHT22;66564;42.482;25.548;2024-03-29T08:36:47;27.67;27.55
77467;DHT22;66564;42.482;25.548;2024-03-29T08:39:13;27.79;26.70
77467;DHT22;66564;42.482;25.548;2024-03-29T08:41:38;27.50;25.09
77467;DHT22;66564;42.482;25.548;2024-03-29T08:44:06;27.64;27.32
77467;DHT22;66564;42.482;25.548;2024-03-29T08:46:35;27.87;26.88
77467;DHT22;66564;42.482;25.548;2024-03-29T08:49:00;27.97;26.07
77467;DHT22;66564;42.482;25.548;2024-03-29T08:51:26;28.14;27.14
77467;DHT22;66564;42.482;25.548;2024-03-29T08:53:51;28.34;28.98
77467;DHT22;66564;42.482;25.548;2024-03-29T08:56:17;28.31;25.07
77467;DHT22;66564;42.482;25.548;2024-03-29T08:58:43;28.38;26.51
77467;DHT22;66564;42.482;25.548;2024-03-29T09:01:08;28.52;28.31
77467;DHT22;66564;42.482;25.548;2024-03-29T09:03:33;28.71;28.17
77467;DHT22;66564;42.482;25.548;2024-03-29T09:05:59;28.75;25.65
77467;DHT22;66564;42.482;25.548;2024-03-29T09:08:24;28.82;26.36
77467;DHT22;66564;42.482;25.548;2024-03-29T09:10:53;28.88;23.75
77467;DHT22;66564;42.482;25.548;2024-03-29T09:13:19;28.87;24.37
77467;DHT22;66564;42.482;25.548;2024-03-29T09:15:44;28.98;27.33
77467;DHT22;66564;42.482;25.548;2024-03-29T09:18:10;29.12;26.12
77467;DHT22;66564;42.482;25.548;2024-03-29T09:20:42;29.13;24.63
77467;DHT22;66564;42.482;25.548;2024-03-29T09:23:07;29.08;24.75
77467;DHT22;66564;42.482;25.548;2024-03-29T09:25:32;28.43;22.66
77467;DHT22;66564;42.482;25.548;2024-03-29T09:27:58;28.47;24.19
77467;DHT22;66564;42.482;25.548;2024-03-29T09:30:26;28.54;24.03
77467;DHT22;66564;42.482;25.548;2024-03-29T09:32:52;28.51;24.02
77467;DHT22;66564;42.482;25.548;2024-03-29T09:35:17;28.58;25.62
77467;DHT22;66564;42.482;25.548;2024-03-29T09:37:44;28.67;25.87
77467;DHT22;66564;42.482;25.548;2024-03-29T09:40:10;28.52;23.70
77467;DHT22;66564;42.482;25.548;2024-03-29T09:42:38;28.49;23.66
77467;DHT22;66564;42.482;25.548;2024-03-29T09:45:05;28.61;25.50
77467;DHT22;66564;42.482;25.548;2024-03-29T09:47:31;28.83;27.76
77467;DHT22;66564;42.482;25.548;2024-03-29T09:49:59;29.06;25.85
77467;DHT22;66564;42.482;25.548;2024-03-29T09:52:25;28.37;23.84
77467;DHT22;66564;42.482;25.548;2024-03-29T09:54:51;28.67;25.54
77467;DHT22;66564;42.482;25.548;2024-03-29T09:57:16;28.80;23.87
77467;DHT22;66564;42.482;25.548;2024-03-29T09:59:42;28.92;24.93
77467;DHT22;66564;42.482;25.548;2024-03-29T10:02:18;29.08;25.64
77467;DHT22;66564;42.482;25.548;2024-03-29T10:04:46;29.32;25.39
77467;DHT22;66564;42.482;25.548;2024-03-29T10:07:14;29.33;21.55
77467;DHT22;66564;42.482;25.548;2024-03-29T10:09:42;27.73;22.10
77467;DHT22;66564;42.482;25.548;2024-03-29T10:12:08;28.03;23.64
77467;DHT22;66564;42.482;25.548;2024-03-29T10:14:46;28.28;25.53
77467;DHT22;66564;42.482;25.548;2024-03-29T10:17:18;27.90;22.76
77467;DHT22;66564;42.482;25.548;2024-03-29T10:19:44;28.15;25.37
77467;DHT22;66564;42.482;25.548;2024-03-29T10:22:09;28.47;26.00
77467;DHT22;66564;42.482;25.548;2024-03-29T10:24:36;27.63;23.18
77467;DHT22;66564;42.482;25.548;2024-03-29T10:27:02;27.64;24.14
77467;DHT22;66564;42.482;25.548;2024-03-29T10:29:31;27.97;24.18
77467;DHT22;66564;42.482;25.548;2024-03-29T10:31:56;28.03;23.21
77467;DHT22;66564;42.482;25.548;2024-03-29T10:34:22;28.11;23.05
77467;DHT22;66564;42.482;25.548;2024-03-29T10:36:49;28.04;22.77
77467;DHT22;66564;42.482;25.548;2024-03-29T10:39:16;27.94;23.24
77467;DHT22;66564;42.482;25.548;2024-03-29T10:41:43;27.97;23.93
77467;DHT22;66564;42.482;25.548;2024-03-29T10:44:10;28.03;22.62
77467;DHT22;66564;42.482;25.548;2024-03-29T10:46:37;27.77;23.91
77467;DHT22;66564;42.482;25.548;2024-03-29T10:49:06;28.04;23.88
77467;DHT22;66564;42.482;25.548;2024-03-29T10:51:33;28.15;25.25
77467;DHT22;66564;42.482;25.548;2024-03-29T10:53:59;28.37;25.20
77467;DHT22;66564;42.482;25.548;2024-03-29T10:56:26;28.48;23.23
77467;DHT22;66564;42.482;25.548;2024-03-29T10:58:56;27.98;23.73
77467;DHT22;66564;42.482;25.548;2024-03-29T11:01:25;27.63;24.33
77467;DHT22;66564;42.482;25.548;2024-03-29T11:03:58;27.69;24.57
77467;DHT22;66564;42.482;25.548;2024-03-29T11:06:28;27.94;27.63
77467;DHT22;66564;42.482;25.548;2024-03-29T11:08:56;28.40;30.24
77467;DHT22;66564;42.482;25.548;2024-03-29T11:11:24;28.78;28.85
77467;DHT22;66564;42.482;25.548;2024-03-29T11:14:06;28.35;24.53
77467;DHT22;66564;42.482;25.548;2024-03-29T11:16:33;28.24;25.53
77467;DHT22;66564;42.482;25.548;2024-03-29T11:18:59;28.25;24.55
77467;DHT22;66564;42.482;25.548;2024-03-29T11:21:27;28.24;24.97
77467;DHT22;66564;42.482;25.548;2024-03-29T11:23:54;28.14;24.98
77467;DHT22;66564;42.482;25.548;2024-03-29T11:26:22;28.13;25.37
77467;DHT22;66564;42.482;25.548;2024-03-29T11:28:49;28.22;23.07
77467;DHT22;66564;42.482;25.548;2024-03-29T11:31:15;28.43;24.75
77467;DHT22;66564;42.482;25.548;2024-03-29T11:38:39;28.57;23.72
77467;DHT22;66564;42.482;25.548;2024-03-29T11:41:16;28.65;23.74
77467;DHT22;66564;42.482;25.548;2024-03-29T11:43:42;28.61;23.40
77467;DHT22;66564;42.482;25.548;2024-03-29T11:46:13;28.25;22.59
77467;DHT22;66564;42.482;25.548;2024-03-29T11:48:39;28.18;24.13
77467;DHT22;66564;42.482;25.548;2024-03-29T11:51:07;28.15;23.60
77467;DHT22;66564;42.482;25.548;2024-03-29T11:53:33;28.07;23.49
77467;DHT22;66564;42.482;25.548;2024-03-29T11:56:00;27.80;23.22
77467;DHT22;66564;42.482;25.548;2024-03-29T11:58:27;27.71;24.38
77467;DHT22;66564;42.482;25.548;2024-03-29T12:00:54;27.57;24.19
77467;DHT22;66564;42.482;25.548;2024-03-29T12:03:22;27.59;24.18
77467;DHT22;66564;42.482;25.548;2024-03-29T12:05:49;27.54;25.22
77467;DHT22;66564;42.482;25.548;2024-03-29T12:08:20;27.46;24.24
77467;DHT22;66564;42.482;25.548;2024-03-29T12:10:46;27.43;26.24
77467;DHT22;66564;42.482;25.548;2024-03-29T12:13:15;27.54;25.32
77467;DHT22;66564;42.482;25.548;2024-03-29T12:15:41;27.66;24.96
77467;DHT22;66564;42.482;25.548;2024-03-29T12:18:07;27.64;24.65
77467;DHT22;66564;42.482;25.548;2024-03-29T12:20:33;27.64;24.33
77467;DHT22;66564;42.482;25.548;2024-03-29T12:22:59;27.47;24.77
77467;DHT22;66564;42.482;25.548;2024-03-29T12:25:27;27.32;24.79
77467;DHT22;66564;42.482;25.548;2024-03-29T12:27:53;27.23;24.47
77467;DHT22;66564;42.482;25.548;2024-03-29T12:30:18;27.15;25.03
77467;DHT22;66564;42.482;25.548;2024-03-29T12:32:44;27.23;25.59
77467;DHT22;66564;42.482;25.548;2024-03-29T12:35:14;27.28;24.87
77467;DHT22;66564;42.482;25.548;2024-03-29T12:37:50;27.23;24.88
77467;DHT22;66564;42.482;25.548;2024-03-29T12:40:19;27.10;25.60
77467;DHT22;66564;42.482;25.548;2024-03-29T12:42:51;26.92;25.29
77467;DHT22;66564;42.482;25.548;2024-03-29T12:45:20;26.41;26.32
77467;DHT22;66564;42.482;25.548;2024-03-29T12:47:47;26.33;26.38
77467;DHT22;66564;42.482;25.548;2024-03-29T12:50:20;26.30;27.37
77467;DHT22;66564;42.482;25.548;2024-03-29T12:52:49;26.24;27.38
77467;DHT22;66564;42.482;25.548;2024-03-29T12:55:14;26.25;27.52
77467;DHT22;66564;42.482;25.548;2024-03-29T12:57:46;26.49;27.50
77467;DHT22;66564;42.482;25.548;2024-03-29T13:00:12;26.38;27.13
77467;DHT22;66564;42.482;25.548;2024-03-29T13:02:38;26.13;27.46
77467;DHT22;66564;42.482;25.548;2024-03-29T13:05:04;26.25;27.87
77467;DHT22;66564;42.482;25.548;2024-03-29T13:07:33;26.31;27.14
77467;DHT22;66564;42.482;25.548;2024-03-29T13:09:59;26.20;27.12
77467;DHT22;66564;42.482;25.548;2024-03-29T13:12:29;25.90;28.12
77467;DHT22;66564;42.482;25.548;2024-03-29T13:14:54;25.98;28.49
77467;DHT22;66564;42.482;25.548;2024-03-29T13:17:20;25.74;28.17
77467;DHT22;66564;42.482;25.548;2024-03-29T13:19:45;25.81;28.57
77467;DHT22;66564;42.482;25.548;2024-03-29T13:22:11;25.97;28.09
77467;DHT22;66564;42.482;25.548;2024-03-29T13:24:36;26.05;28.41
77467;DHT22;66564;42.482;25.548;2024-03-29T13:27:02;26.18;27.39
77467;DHT22;66564;42.482;25.548;2024-03-29T13:29:30;26.14;27.35
77467;DHT22;66564;42.482;25.548;2024-03-29T13:31:56;26.05;27.58
77467;DHT22;66564;42.482;25.548;2024-03-29T13:34:22;26.07;27.61
77467;DHT22;66564;42.482;25.548;2024-03-29T13:36:48;25.86;27.76
77467;DHT22;66564;42.482;25.548;2024-03-29T13:39:13;25.71;27.72
77467;DHT22;66564;42.482;25.548;2024-03-29T13:41:40;25.65;28.73
77467;DHT22;66564;42.482;25.548;2024-03-29T13:44:06;25.60;28.11
77467;DHT22;66564;42.482;25.548;2024-03-29T13:46:35;25.32;28.24
77467;DHT22;66564;42.482;25.548;2024-03-29T13:49:02;25.32;28.61
77467;DHT22;66564;42.482;25.548;2024-03-29T13:51:30;25.35;28.82
77467;DHT22;66564;42.482;25.548;2024-03-29T13:53:55;25.40;28.37
77467;DHT22;66564;42.482;25.548;2024-03-29T13:56:22;25.35;28.66
77467;DHT22;66564;42.482;25.548;2024-03-29T13:58:47;25.42;28.48
77467;DHT22;66564;42.482;25.548;2024-03-29T14:01:13;25.30;28.71
77467;DHT22;66564;42.482;25.548;2024-03-29T14:03:39;25.39;28.69
77467;DHT22;66564;42.482;25.548;2024-03-29T14:06:05;25.35;28.19
77467;DHT22;66564;42.482;25.548;2024-03-29T14:08:31;25.43;27.93
77467;DHT22;66564;42.482;25.548;2024-03-29T14:10:58;25.37;28.14
77467;DHT22;66564;42.482;25.548;2024-03-29T14:13:23;25.32;28.56
77467;DHT22;66564;42.482;25.548;2024-03-29T14:15:49;25.20;28.08
77467;DHT22;66564;42.482;25.548;2024-03-29T14:18:15;25.01;28.21
77467;DHT22;66564;42.482;25.548;2024-03-29T14:20:40;25.01;28.70
77467;DHT22;66564;42.482;25.548;2024-03-29T14:23:06;24.96;28.64
77467;DHT22;66564;42.482;25.548;2024-03-29T14:25:33;24.98;28.66
77467;DHT22;66564;42.482;25.548;2024-03-29T14:28:01;24.99;28.81
77467;DHT22;66564;42.482;25.548;2024-03-29T14:30:27;24.91;28.12
77467;DHT22;66564;42.482;25.548;2024-03-29T14:32:54;24.86;28.24
77467;DHT22;66564;42.482;25.548;2024-03-29T14:35:19;24.79;28.15
77467;DHT22;66564;42.482;25.548;2024-03-29T14:37:46;24.65;28.92
77467;DHT22;66564;42.482;25.548;2024-03-29T14:40:11;24.62;28.48
77467;DHT22;66564;42.482;25.548;2024-03-29T14:42:43;24.64;28.55
77467;DHT22;66564;42.482;25.548;2024-03-29T14:45:10;24.45;28.29
77467;DHT22;66564;42.482;25.548;2024-03-29T14:47:38;24.37;28.43
77467;DHT22;66564;42.482;25.548;2024-03-29T14:50:05;24.25;28.63
77467;DHT22;66564;42.482;25.548;2024-03-29T14:52:35;24.18;28.59
77467;DHT22;66564;42.482;25.548;2024-03-29T14:55:01;24.14;29.18
77467;DHT22;66564;42.482;25.548;2024-03-29T14:57:27;24.11;28.96
77467;DHT22;66564;42.482;25.548;2024-03-29T14:59:52;24.00;28.87
77467;DHT22;66564;42.482;25.548;2024-03-29T15:02:18;23.94;28.70
77467;DHT22;66564;42.482;25.548;2024-03-29T15:04:43;23.83;28.83
77467;DHT22;66564;42.482;25.548;2024-03-29T15:07:09;23.77;29.43
77467;DHT22;66564;42.482;25.548;2024-03-29T15:09:35;23.65;28.91
77467;DHT22;66564;42.482;25.548;2024-03-29T15:12:01;23.60;29.46
77467;DHT22;66564;42.482;25.548;2024-03-29T15:14:28;23.63;29.55
77467;DHT22;66564;42.482;25.548;2024-03-29T15:16:54;23.59;29.26
77467;DHT22;66564;42.482;25.548;2024-03-29T15:19:20;23.57;29.60
77467;DHT22;66564;42.482;25.548;2024-03-29T15:21:46;23.63;29.40